Mount Gambier, South Australia

11:00 PM CST on July 24, 2014 (GMT +0930)
Mount Gambier (YMTG) Elev 210 ft | 37.75 °S, 140.79 °E | Change Station

Current weather conditions updated 30 minutes ago

Overcast
Overcast
52 °F
Feels Like 52 °F
N
13
Wind Variable Wind from North

Tomorrow is forecast to be Warmer than today. Rain with a few rumbles of thunder.

Today
High -- | Low -- °F
--% Chance of Precip.
Yesterday
High -- | Low -- °F
Precip. -- in
7:13 AM 5:13 PM
Waning Crescent, 5% visible
Pressure 29.77 in
Visibility 6.2 miles
Clouds Scattered Clouds 900 ft
Mostly Cloudy 1200 ft
Overcast 2500 ft
Dew Point 50 °F
Humidity 94%
Rainfall 0.00 in
Snow Depth Not available.
UV 0 out of 12
Pollen Not available.
Air Quality Not available.
Flu Activity Not available.
SPECI YMTG 241300Z AUTO 01011KT 9999 // SCT009 BKN012 OVC025 11/10 Q1008

More Conditions Fewer Conditions

Pressure 29.77 in
Visibility 6.2 miles
Clouds Scattered Clouds 900 ft
Mostly Cloudy 1200 ft
Overcast 2500 ft
Dew Point 50 °F
Humidity 94%
Rainfall 0.00 in
Snow Depth Not available.
UV 0 out of 12
Pollen Not available.
Air Quality Not available.
Flu Activity Not available.
SPECI YMTG 241300Z AUTO 01011KT 9999 // SCT009 BKN012 OVC025 11/10 Q1008

More Conditions Fewer Conditions

10-Day Weather Forecast

Almanac

Astronomy

Jul. 24, 2014 Rise Set
Actual Time 7:13 AM CST 5:13 PM CST
Civil Twilight 6:45 AM CST 5:41 PM CST
Nautical Twilight 6:13 AM CST 6:13 PM CST
Astronomical Twilight 5:42 AM CST 6:44 PM CST
Moon 4:46 AM CST 3:03 PM CST
Length of Visible Light 10h 55m
Length of Day
9h 59m
Tomorrow will be 1m 30s longer.
Waning Crescent, 5% of the Moon is Illuminated
Today
Waning Crescent
Jul 26
New
Aug 3
First Quarter
Aug 10
Full
Aug 17
Last Quarter

Yesterday's Extremes

Country Highs Country Lows

Community

WunderPhotos

Upload Photos

1,736,998 photos uploaded!

Nearby

Snow Depth

Not available.

Earthquake Activity

City Distance Mag. Time & Date
No recent earthquake activity has been reported nearby.
Minimum magnitude displayed is 2.5.

Coastal Water Temperatures

Place Temperature
No Stations Reporting

Nearby Weather Stations

Station Location Temp. Dew Point Humidity Wind Precip. Elev Updated Type
Yahl, YAHL 52.4 °F 52 °F 98% SW  at  3.0 mph 0.01 in / hr 128 ft 10:47 PM CST Normal
Rocky Camp, Millicent 52.9 °F 51 °F 92% NNE  at  0.0 mph 0.00 in / hr 69 ft 10:58 PM CST Normal

Show More Stations Show Fewer Stations